Air Navigation Services of Czech Republic
Airport: LKKV Updated:  11.08.2020 01:00:27  UTC
 METAR LKKV 11.08. 01:00 ...
METAR LKKV 110100Z 04003KT 010V080 CAVOK 18/15 Q1020 RMK REG QNH 1015=
 TAF LKKV 10.08. 23:00 ...
TAF LKKV 102300Z 1100/1206 05004KT CAVOK      TEMPO 1100/1118 12010KT 5000 SHRA SCT035TCU      PROB30 TEMPO 1102/1106 3000 BR NSC      PROB40 TEMPO 1106/1115 2500 TSRA SCT030CB      BECMG 1121/1200 VRB02KT 5000 BR SCT013      TEMPO 1200/1206 1700 BR BKN007=